Flight Track Log - Related Links

Times and Time Zones

All times are in EDT time to prevent confusion due to time zone crossing. See the LBQ792 flight status page for this flight to view local times or setup timezone preferences in your user account.

Time Position Orientation Groundspeed Altitude Reporting Facility
EDT Latitude Longitude Course Direction KTS MPH feet Rate Location/Type
Wed 12:50:07 AM 39.8350 -79.1206 126° Southeast 252 290 14,900  Level Washington Center
Wed 12:51:07 AM 39.7994 -79.0539 125° Southeast 246 283 15,000 49 Climbing Washington Center
Wed 12:52:10 AM 39.7661 -78.9819 121° Southeast 241 277 15,000 50 Level Washington Center
Wed 12:53:07 AM 39.7203 -78.9017 127° Southeast 246 283 15,100 51 Climbing Washington Center
Wed 12:54:07 AM 39.6867 -78.8353 123° Southeast 240 276 15,100  Level Washington Center
Wed 12:55:00 AM 40.1350 -79.5962 126° Southeast  Level FlightAware Approximate
Wed 12:55:10 AM 39.6489 -78.7664 125° Southeast 235 270 15,100  Level Washington Center
Wed 12:56:10 AM 39.6133 -78.6975 124° Southeast 235 270 14,800 -864 Descending Washington Center
Wed 12:57:08 AM 39.5756 -78.6231 123° Southeast 235 270 13,400 -1,412 Descending Washington Center
Wed 12:58:09 AM 39.5336 -78.5514 127° Southeast 240 276 12,000 -1,350 Descending Washington Center
Wed 12:59:08 AM 39.4978 -78.4800 123° Southeast 240 276 10,700 -1,361 Descending Washington Center
Wed 01:00:08 AM 39.4619 -78.4139 125° Southeast 240 276 9,300 -807 Descending Washington Center
Wed 01:01:07 AM 39.4258 -78.3481 125° Southeast 233 268 9,100 -100 Descending Washington Center
Wed 01:02:08 AM 39.3939 -78.2878 124° Southeast 219 252 9,100 -100 Level Washington Center
Wed 01:03:07 AM 39.3619 -78.2275 124° Southeast 214 246 8,900 -857 Descending Washington Center
Wed 01:04:07 AM 39.3469 -78.1492 104° East 209 241 7,400 -1,438 Descending Washington Center
Wed 01:05:08 AM 39.3297 -78.0708 106° East 214 246 6,000 -738 Descending Washington Center
Wed 01:06:09 AM 39.3186 -78.0006 102° East 209 241 5,900 -49 Descending Washington Center
Wed 01:07:10 AM 39.3056 -77.9306 104° East 202 232 5,900  Level Washington Center
Wed 01:09:31 AM 39.2333 -77.7833 122° Southeast 198 228 5,900 -239 Level Potomac TRACON
Wed 01:10:31 AM 39.2000 -77.7333 131° Southeast 210 242 5,100 -750 Descending Potomac TRACON
Wed 01:11:31 AM 39.1667 -77.6833 131° Southeast 220 253 4,400 -600 Descending Potomac TRACON
Wed 01:12:31 AM 39.1167 -77.6333 142° Southeast 223 257 3,900 -700 Descending Potomac TRACON
Wed 01:13:31 AM 39.0833 -77.5833 131° Southeast 207 238 3,000 -895 Descending Potomac TRACON
Wed 01:14:25 AM 39.0500 -77.5333 131° Southeast 194 223 2,200 -789 Descending Potomac TRACON
Wed 01:15:25 AM 39.0167 -77.4833 131° Southeast 179 206 1,500 -650 Descending Potomac TRACON
Wed 01:16:25 AM 38.9833 -77.4667 159° South 124 143 900 -600 Descending Potomac TRACON
Wed 01:18:00 AM 38.9474 -77.4599 142° Southeast  Level Estimated
Wed 01:25:00 AM 38.9474 -77.4599 142° Southeast  Level Estimated
Wed 01:26:00 AM 38.9474 -77.4599 142° Southeast  Level Estimated
Wed 01:27:00 AM 38.9474 -77.4599 142° Southeast  Level Estimated
Wed 01:28:00 AM 38.9474 -77.4599 142° Southeast  Level Estimated

Login

Don't have an account? Register now (free) for customized features, flight alerts, and more!